Time;durP1;ratioP1;P1;durP2;ratioP2;P2;SDS_P1;SDS_P2;PMS_P1;PMS_P2;Temp;Humidity;BMP_temperature;BMP_pressure;BME280_temperature;BME280_humidity;BME280_pressure;Samples;Min_cycle;Max_cycle;Signal;HPM_P1;HPM_P2
2024/04/12 00:01:11;;;;;;;29.43;23.90;;;;;;;15.92;78.99;102687.75;5215702;27;20530;-77
2024/04/12 00:03:37;;;;;;;28.47;23.93;;;;;;;15.85;78.76;102691.13;5245071;27;20981;-76
2024/04/12 00:06:14;;;;;;;32.20;23.50;;;;;;;15.73;79.50;102687.34;5245081;27;20444;-77
2024/04/12 00:08:43;;;;;;;33.30;23.40;;;;;;;15.75;78.88;102684.75;5215468;27;20231;-77
2024/04/12 00:11:08;;;;;;;25.80;23.00;;;;;;;15.90;78.42;102685.09;5244819;27;20471;-76
2024/04/12 00:13:40;;;;;;;26.53;20.90;;;;;;;16.15;77.30;102683.75;5245169;27;20492;-76
2024/04/12 00:16:08;;;;;;;30.63;22.30;;;;;;;16.05;77.38;102679.22;5215450;27;20267;-77
2024/04/12 00:18:35;;;;;;;27.70;22.37;;;;;;;15.78;77.66;102690.09;5244674;27;20448;-76
2024/04/12 00:21:03;;;;;;;29.90;21.73;;;;;;;16.10;77.96;102676.66;5244687;27;20479;-75
2024/04/12 00:23:30;;;;;;;22.70;20.27;;;;;;;15.91;78.13;102675.44;5215918;27;20768;-76
2024/04/12 00:26:00;;;;;;;26.00;20.53;;;;;;;16.09;77.84;102665.25;5215245;27;21566;-76
2024/04/12 00:28:32;;;;;;;24.03;19.73;;;;;;;15.45;79.96;102670.13;5244674;27;20447;-76
2024/04/12 00:31:01;;;;;;;23.73;20.37;;;;;;;15.53;79.56;102678.19;5244688;27;21016;-77
2024/04/12 00:33:31;;;;;;;23.97;20.87;;;;;;;16.10;78.07;102666.13;5244850;27;20490;-77
2024/04/12 00:35:59;;;;;;;30.97;24.43;;;;;;;15.81;77.85;102664.75;5215134;27;20507;-77
2024/04/12 00:38:24;;;;;;;26.73;21.53;;;;;;;15.93;78.17;102666.72;5244355;27;20537;-76
2024/04/12 00:40:52;;;;;;;21.60;19.30;;;;;;;15.79;79.23;102666.44;5214906;27;21047;-76
2024/04/12 00:43:19;;;;;;;21.50;18.57;;;;;;;15.64;79.56;102667.03;5215045;27;20236;-77
2024/04/12 00:45:48;;;;;;;21.00;18.70;;;;;;;16.33;77.11;102658.63;5244305;27;20564;-77
2024/04/12 00:48:18;;;;;;;24.30;20.50;;;;;;;16.24;77.35;102654.09;5243410;27;20436;-77
2024/04/12 00:50:43;;;;;;;21.77;19.23;;;;;;;16.20;76.62;102648.78;5244810;27;20827;-76
2024/04/12 00:53:11;;;;;;;23.20;20.53;;;;;;;16.11;77.53;102645.09;5244551;27;20494;-75
2024/04/12 00:55:40;;;;;;;20.77;18.37;;;;;;;15.83;78.01;102649.88;5244377;27;20228;-77
2024/04/12 00:58:09;;;;;;;23.13;19.17;;;;;;;15.56;79.12;102650.22;5244219;27;20484;-77
2024/04/12 01:00:35;;;;;;;23.10;18.87;;;;;;;15.60;78.92;102653.78;5244100;27;20508;-77
2024/04/12 01:03:05;;;;;;;24.33;18.70;;;;;;;15.80;78.86;102651.56;5244318;27;21096;-78
2024/04/12 01:05:35;;;;;;;23.63;19.43;;;;;;;16.14;77.45;102653.06;5244345;27;20500;-77
2024/04/12 01:08:01;;;;;;;20.50;16.63;;;;;;;16.31;76.81;102650.72;5244373;27;20887;-77
2024/04/12 01:10:30;;;;;;;31.10;23.63;;;;;;;16.19;77.32;102655.78;5244146;27;20444;-77
2024/04/12 01:12:57;;;;;;;31.83;27.53;;;;;;;16.30;77.60;102654.22;5244226;27;20227;-77
2024/04/12 01:15:25;;;;;;;36.83;31.67;;;;;;;15.94;77.83;102654.44;5244398;27;20507;-76
2024/04/12 01:17:51;;;;;;;23.87;19.40;;;;;;;15.42;80.19;102660.44;5214491;27;20463;-75
2024/04/12 01:20:17;;;;;;;22.07;18.07;;;;;;;15.62;79.74;102657.34;5214602;27;20443;-75
2024/04/12 01:22:45;;;;;;;22.20;18.70;;;;;;;16.14;78.34;102642.53;5243898;27;20501;-76
2024/04/12 01:25:13;;;;;;;24.53;18.40;;;;;;;15.94;78.54;102644.81;5214689;27;20274;-75
2024/04/12 01:27:38;;;;;;;22.97;19.57;;;;;;;16.21;77.95;102638.28;5244136;27;20484;-76
2024/04/12 01:30:05;;;;;;;24.33;19.40;;;;;;;16.08;78.53;102631.03;5244492;27;21067;-76
2024/04/12 01:32:31;;;;;;;25.27;19.27;;;;;;;16.28;77.77;102631.38;5244095;27;20581;-76
2024/04/12 01:34:56;;;;;;;22.87;18.30;;;;;;;15.88;77.71;102626.28;5244450;27;20502;-76
2024/04/12 01:37:21;;;;;;;24.50;19.67;;;;;;;16.23;78.34;102627.78;5244440;27;20224;-75
2024/04/12 01:39:47;;;;;;;24.73;19.60;;;;;;;15.91;78.52;102634.25;5257647;27;20229;-75
2024/04/12 01:42:13;;;;;;;25.37;21.37;;;;;;;15.39;80.22;102628.84;5246463;27;20299;-75
2024/04/12 01:44:38;;;;;;;29.40;22.70;;;;;;;15.86;79.70;102617.50;5215515;27;20475;-75
2024/04/12 01:47:04;;;;;;;28.47;21.43;;;;;;;15.18;81.90;102618.81;5243948;27;20228;-76
2024/04/12 01:49:33;;;;;;;27.80;22.70;;;;;;;15.62;81.72;102625.78;5243944;27;20698;-75
2024/04/12 01:52:00;;;;;;;30.67;22.77;;;;;;;15.64;81.29;102630.22;5244017;27;20279;-75
2024/04/12 01:54:25;;;;;;;26.50;22.30;;;;;;;15.77;80.37;102627.81;5243687;27;20460;-75
2024/04/12 01:56:50;;;;;;;30.97;23.20;;;;;;;15.74;80.98;102631.28;5243336;27;20460;-75
2024/04/12 01:59:21;;;;;;;30.40;24.20;;;;;;;15.51;81.56;102637.84;5243597;27;20269;-75
2024/04/12 02:01:51;;;;;;;31.60;24.93;;;;;;;15.50;82.38;102626.44;5214237;27;20274;-75
2024/04/12 02:04:18;;;;;;;31.13;24.80;;;;;;;15.71;81.40;102631.22;5243983;27;20452;-75
2024/04/12 02:06:48;;;;;;;31.17;25.47;;;;;;;15.98;80.55;102630.88;5214305;27;20494;-75
2024/04/12 02:09:14;;;;;;;32.00;24.90;;;;;;;15.85;79.95;102631.50;5243663;27;20440;-76
2024/04/12 02:11:46;;;;;;;31.50;25.50;;;;;;;15.34;80.18;102627.88;5214447;27;20498;-77
2024/04/12 02:14:12;;;;;;;30.40;23.73;;;;;;;15.42;81.52;102628.91;5243877;27;20574;-76
2024/04/12 02:16:39;;;;;;;40.13;26.77;;;;;;;15.91;80.79;102618.47;5244200;27;20511;-76
2024/04/12 02:19:13;;;;;;;35.20;26.60;;;;;;;15.78;80.86;102626.97;5243645;27;20504;-76
2024/04/12 02:21:38;;;;;;;35.00;27.33;;;;;;;15.86;80.63;102617.50;5244974;27;20468;-75
2024/04/12 02:24:11;;;;;;;34.70;25.87;;;;;;;15.90;79.91;102615.78;5243930;27;20478;-76
2024/04/12 02:26:37;;;;;;;32.43;25.10;;;;;;;15.95;80.01;102609.78;5243617;27;20439;-75
2024/04/12 02:29:04;;;;;;;33.43;25.17;;;;;;;15.96;79.00;102608.88;5242978;27;20576;-78
2024/04/12 02:31:31;;;;;;;31.90;23.70;;;;;;;15.85;80.27;102610.47;5243194;27;20236;-75
2024/04/12 02:33:58;;;;;;;30.47;24.83;;;;;;;16.29;78.22;102610.34;5243499;27;20973;-76
2024/04/12 02:36:25;;;;;;;29.70;24.30;;;;;;;16.31;77.58;102608.59;5213958;27;20424;-75
2024/04/12 02:38:50;;;;;;;30.97;24.57;;;;;;;15.88;78.83;102601.75;5243355;27;20519;-75
2024/04/12 02:41:16;;;;;;;30.13;25.47;;;;;;;15.75;79.62;102601.50;5242969;27;20460;-75
2024/04/12 02:43:51;;;;;;;28.70;24.30;;;;;;;16.00;78.81;102596.69;5242793;27;20813;-76
2024/04/12 02:46:17;;;;;;;34.17;24.13;;;;;;;16.07;77.95;102601.19;5243326;27;20444;-74
2024/04/12 02:48:47;;;;;;;32.57;23.97;;;;;;;16.21;77.49;102600.53;5243813;27;20452;-75
2024/04/12 02:51:14;;;;;;;29.83;22.20;;;;;;;15.72;78.38;102606.72;5213743;27;20527;-75
2024/04/12 02:53:42;;;;;;;27.90;22.20;;;;;;;15.91;78.59;102609.69;5243471;27;20459;-75
2024/04/12 02:56:12;;;;;;;27.63;21.87;;;;;;;16.02;77.48;102604.59;5244090;27;20618;-75
2024/04/12 02:58:45;;;;;;;28.23;21.67;;;;;;;15.87;78.15;102605.22;5243746;27;20500;-76
2024/04/12 03:01:12;;;;;;;27.20;21.20;;;;;;;15.95;78.28;102601.88;5243544;27;20476;-77
2024/04/12 03:03:47;;;;;;;25.57;20.27;;;;;;;15.43;79.83;102580.75;5243583;27;20504;-76
2024/04/12 03:06:13;;;;;;;25.73;20.50;;;;;;;16.16;77.53;102576.78;5243567;27;20447;-77
2024/04/12 03:08:44;;;;;;;24.90;18.83;;;;;;;15.21;80.27;102586.44;5242847;27;20460;-76
2024/04/12 03:11:14;;;;;;;23.13;18.77;;;;;;;15.95;78.53;102582.56;5212938;27;20554;-76
2024/04/12 03:13:44;;;;;;;26.10;18.87;;;;;;;15.74;78.35;102580.44;5246203;27;20463;-76
2024/04/12 03:16:13;;;;;;;20.63;17.53;;;;;;;15.60;78.51;102588.06;5246301;27;20447;-77
2024/04/12 03:18:58;;;;;;;24.13;18.60;;;;;;;16.20;78.24;102585.63;5246514;27;20952;-74
2024/04/12 03:21:30;;;;;;;23.20;17.70;;;;;;;16.07;77.36;102585.41;5245733;27;20579;-77
2024/04/12 03:23:57;;;;;;;23.27;17.60;;;;;;;15.55;79.30;102587.09;5245783;27;20842;-76
2024/04/12 03:26:23;;;;;;;32.03;18.17;;;;;;;15.35;80.46;102584.97;5245651;27;20500;-76
2024/04/12 03:28:53;;;;;;;23.27;18.60;;;;;;;16.05;78.55;102573.97;5245582;27;20529;-76
2024/04/12 03:31:19;;;;;;;24.10;18.70;;;;;;;16.02;78.43;102579.19;5216045;27;21123;-76
2024/04/12 03:33:44;;;;;;;23.77;18.67;;;;;;;16.33;77.08;102579.66;5245754;27;20452;-77
2024/04/12 03:36:26;;;;;;;22.87;17.37;;;;;;;15.91;78.86;102580.75;5245428;27;20563;-77
2024/04/12 03:44:31;;;;;;;22.00;17.73;;;;;;;15.21;80.70;102575.91;5245548;27;20845;-77
2024/04/12 03:47:02;;;;;;;28.80;17.60;;;;;;;14.97;83.08;102582.47;5245612;27;20504;-77
2024/04/12 03:49:30;;;;;;;26.20;19.20;;;;;;;15.15;82.88;102579.31;5245278;27;20508;-77
2024/04/12 03:51:57;;;;;;;25.83;18.77;;;;;;;15.64;81.13;102572.38;5285319;22;20542;-75
2024/04/12 03:54:24;;;;;;;26.00;19.03;;;;;;;15.38;82.33;102569.25;5281694;27;20562;-75
2024/04/12 03:56:56;;;;;;;25.70;18.80;;;;;;;15.31;82.24;102567.38;5281045;27;20872;-74
2024/04/12 03:59:29;;;;;;;25.10;18.73;;;;;;;15.10;82.38;102562.56;5281926;27;20984;-75
2024/04/12 04:01:55;;;;;;;25.53;18.80;;;;;;;15.51;82.58;102564.25;5282973;27;20497;-75
2024/04/12 04:04:25;;;;;;;29.87;19.67;;;;;;;15.15;82.36;102560.94;5282134;27;20514;-76
2024/04/12 04:06:55;;;;;;;26.17;19.77;;;;;;;15.90;81.58;102558.84;5280554;27;20223;-75
2024/04/12 04:09:25;;;;;;;26.93;20.33;;;;;;;15.69;80.47;102563.69;5280154;27;20499;-74
2024/04/12 04:11:53;;;;;;;30.30;21.07;;;;;;;15.29;83.66;102562.09;5250439;27;20839;-75
2024/04/12 04:14:19;;;;;;;29.87;19.83;;;;;;;15.61;82.57;102556.56;5279815;27;20567;-75
2024/04/12 04:16:50;;;;;;;32.23;20.70;;;;;;;15.16;82.62;102552.19;5279605;27;20535;-75
2024/04/12 04:19:17;;;;;;;30.47;21.17;;;;;;;15.53;82.71;102552.00;5279368;27;20509;-75
2024/04/12 04:21:43;;;;;;;33.40;22.33;;;;;;;14.96;84.13;102551.78;5249816;27;20514;-76
2024/04/12 04:24:09;;;;;;;28.00;21.03;;;;;;;15.70;82.71;102557.56;5278445;27;20442;-76
2024/04/12 04:26:43;;;;;;;30.90;22.00;;;;;;;15.24;83.95;102560.22;5279236;27;20333;-75
2024/04/12 04:29:11;;;;;;;32.87;22.60;;;;;;;15.70;83.37;102561.09;5278995;27;20589;-73
2024/04/12 04:31:50;;;;;;;31.80;22.47;;;;;;;15.33;83.45;102558.66;5279945;27;20474;-75
2024/04/12 04:34:17;;;;;;;31.17;21.97;;;;;;;14.99;85.22;102563.25;5279447;27;20477;-76
2024/04/12 04:36:43;;;;;;;30.67;21.93;;;;;;;15.15;84.40;102563.56;5250217;27;20522;-76
2024/04/12 04:39:15;;;;;;;30.93;22.07;;;;;;;15.26;84.07;102563.75;5279131;27;20438;-75
2024/04/12 04:41:51;;;;;;;33.93;23.80;;;;;;;14.92;85.88;102556.06;5279583;27;20554;-75
2024/04/12 04:44:16;;;;;;;29.77;22.97;;;;;;;15.02;85.32;102569.41;5279604;27;20472;-75
2024/04/12 04:46:45;;;;;;;36.07;24.20;;;;;;;14.21;88.40;102570.25;5279200;27;20450;-76
2024/04/12 04:49:15;;;;;;;34.93;24.17;;;;;;;15.30;85.98;102566.50;5278648;27;20621;-75
2024/04/12 04:51:40;;;;;;;33.17;24.30;;;;;;;14.79;87.17;102561.97;5249033;27;20482;-76
2024/04/12 04:54:11;;;;;;;35.10;24.83;;;;;;;15.61;84.61;102556.56;5273668;27;21001;-76
2024/04/12 04:56:38;;;;;;;35.70;24.20;;;;;;;15.33;85.89;102561.28;5245221;27;20271;-75
2024/04/12 04:59:06;;;;;;;37.77;23.90;;;;;;;15.08;85.80;102548.53;5245572;27;20589;-75
2024/04/12 05:01:34;;;;;;;34.53;24.97;;;;;;;15.58;83.26;102543.34;5245576;27;20463;-75
2024/04/12 05:03:59;;;;;;;36.23;24.43;;;;;;;14.73;85.42;102549.56;5245523;27;20452;-75
2024/04/12 05:06:25;;;;;;;44.23;29.73;;;;;;;15.26;86.59;102542.75;5245466;27;20788;-75
2024/04/12 05:09:03;;;;;;;42.07;29.40;;;;;;;15.07;86.46;102537.16;5216003;27;20232;-75
2024/04/12 05:11:30;;;;;;;41.83;28.47;;;;;;;15.17;86.03;102532.97;5245574;27;20559;-76
2024/04/12 05:14:13;;;;;;;41.03;27.73;;;;;;;15.43;85.17;102525.53;5245778;27;20440;-74
2024/04/12 05:16:40;;;;;;;40.67;29.13;;;;;;;15.31;84.77;102536.72;5245512;27;20988;-76
2024/04/12 05:19:08;;;;;;;33.67;24.70;;;;;;;15.70;83.64;102534.78;5245613;27;20463;-76
2024/04/12 05:21:40;;;;;;;41.10;25.50;;;;;;;14.82;86.15;102520.88;5246559;27;20471;-75
2024/04/12 05:24:09;;;;;;;36.10;25.07;;;;;;;15.37;84.52;102529.81;5216946;27;20860;-76
2024/04/12 05:26:36;;;;;;;34.47;24.87;;;;;;;15.37;84.46;102533.34;5216678;27;21017;-76
2024/04/12 05:29:05;;;;;;;35.20;25.30;;;;;;;15.66;83.10;102527.72;5216730;27;20436;-75
2024/04/12 05:31:31;;;;;;;34.80;26.30;;;;;;;15.83;81.55;102521.03;5216053;27;20536;-75
2024/04/12 05:33:58;;;;;;;33.97;23.50;;;;;;;15.13;83.55;102523.25;5245125;27;20435;-75
2024/04/12 05:36:26;;;;;;;33.67;23.97;;;;;;;15.57;83.77;102511.78;5244925;27;20583;-75
2024/04/12 05:38:52;;;;;;;33.30;26.73;;;;;;;15.52;83.87;102509.06;5245431;27;20496;-75
2024/04/12 05:41:19;;;;;;;34.47;24.93;;;;;;;15.71;81.59;102505.00;5245366;27;20330;-76
2024/04/12 05:43:45;;;;;;;32.40;24.93;;;;;;;15.59;82.41;102515.31;5245421;27;20435;-75
2024/04/12 05:46:11;;;;;;;34.23;23.80;;;;;;;15.64;82.05;102511.00;5245321;27;20562;-75
2024/04/12 05:48:36;;;;;;;36.30;23.30;;;;;;;15.33;81.71;102515.75;5245332;27;20273;-75
2024/04/12 05:51:02;;;;;;;28.20;22.53;;;;;;;15.36;83.04;102518.41;5217983;27;20476;-76
2024/04/12 05:53:31;;;;;;;30.73;22.87;;;;;;;15.35;82.63;102518.41;5249494;27;20319;-75
2024/04/12 05:58:41;;;;;;;31.40;23.73;;;;;;;15.61;81.42;102509.25;5280721;27;20502;-75
2024/04/12 06:01:07;;;;;;;30.37;22.57;;;;;;;15.27;83.09;102513.88;5282269;27;20463;-75
2024/04/12 06:03:42;;;;;;;30.70;22.83;;;;;;;14.93;82.73;102517.59;5278787;27;20270;-75
2024/04/12 06:06:08;;;;;;;32.70;23.10;;;;;;;15.89;80.52;102520.22;5278841;27;20461;-76
2024/04/12 06:08:35;;;;;;;27.40;21.63;;;;;;;15.36;80.72;102526.31;5278196;27;20525;-75
2024/04/12 06:11:01;;;;;;;30.00;22.63;;;;;;;15.77;80.40;102533.16;5249483;27;20867;-75
2024/04/12 06:13:26;;;;;;;28.67;22.43;;;;;;;15.18;81.57;102531.19;5249227;27;20454;-76
2024/04/12 06:15:54;;;;;;;29.10;22.30;;;;;;;15.88;80.40;102542.13;5279062;27;20226;-76
2024/04/12 06:18:19;;;;;;;27.40;21.30;;;;;;;15.36;80.86;102535.91;5249649;27;20269;-75
2024/04/12 06:20:44;;;;;;;29.27;22.97;;;;;;;16.12;79.06;102525.84;5279068;27;20434;-75
2024/04/12 06:23:11;;;;;;;29.63;21.90;;;;;;;15.76;79.00;102520.84;5278418;27;20243;-75
2024/04/12 06:25:43;;;;;;;29.00;22.53;;;;;;;14.88;81.40;102528.00;5279213;27;20219;-75
2024/04/12 06:28:12;;;;;;;29.37;21.23;;;;;;;14.92;82.75;102531.56;5278961;27;20827;-75
2024/04/12 06:30:45;;;;;;;28.47;21.87;;;;;;;16.02;79.77;102525.69;5279096;27;20847;-76
2024/04/12 06:33:19;;;;;;;25.73;20.70;;;;;;;15.24;79.86;102523.44;5278489;27;20439;-76
2024/04/12 06:35:44;;;;;;;31.77;21.27;;;;;;;15.77;79.11;102526.13;5278517;27;20968;-75
2024/04/12 06:38:11;;;;;;;29.33;22.20;;;;;;;15.91;79.64;102515.91;5278173;27;20514;-75
2024/04/12 06:40:37;;;;;;;26.83;21.30;;;;;;;15.34;81.98;102520.13;5278256;27;20231;-75
2024/04/12 06:43:11;;;;;;;27.03;21.10;;;;;;;15.80;80.63;102520.97;5246560;27;20592;-75
2024/04/12 06:45:41;;;;;;;29.30;21.77;;;;;;;16.11;79.12;102513.53;5244330;27;20447;-75
2024/04/12 06:48:20;;;;;;;25.33;20.77;;;;;;;16.37;77.52;102509.53;5243163;27;20444;-76
2024/04/12 06:50:55;;;;;;;25.03;19.77;;;;;;;15.84;79.02;102511.38;5244287;27;20420;-75
2024/04/12 06:53:22;;;;;;;28.33;20.87;;;;;;;16.00;79.74;102501.97;5244537;27;20522;-75
2024/04/12 06:55:58;;;;;;;25.27;19.73;;;;;;;16.11;79.09;102497.75;5243238;27;20478;-75
2024/04/12 06:58:25;;;;;;;28.27;20.50;;;;;;;16.19;79.12;102497.88;5276952;27;20490;-75
2024/04/12 07:00:57;;;;;;;27.90;19.30;;;;;;;15.80;79.48;102489.41;5277752;27;20800;-75
2024/04/12 07:03:23;;;;;;;22.77;19.80;;;;;;;15.77;79.62;102489.31;5278111;27;20450;-76
2024/04/12 07:05:51;;;;;;;24.60;18.50;;;;;;;15.43;80.35;102495.75;5278627;27;20458;-75
2024/04/12 07:08:16;;;;;;;22.73;18.53;;;;;;;16.26;77.70;102477.81;5278592;27;20443;-75
2024/04/12 07:10:48;;;;;;;24.50;17.77;;;;;;;15.46;79.89;102483.53;5277609;27;20529;-75
2024/04/12 07:13:21;;;;;;;23.20;19.43;;;;;;;15.98;78.73;102493.19;5277462;27;20266;-76
2024/04/12 07:15:50;;;;;;;23.17;18.70;;;;;;;16.38;77.67;102491.13;5277876;27;20474;-75
2024/04/12 07:18:16;;;;;;;23.87;18.50;;;;;;;16.08;78.16;102487.19;5277185;27;20462;-76
2024/04/12 07:20:44;;;;;;;26.20;18.50;;;;;;;15.33;79.58;102494.72;5278070;27;20451;-75
2024/04/12 07:23:10;;;;;;;22.03;17.50;;;;;;;15.97;78.53;102494.06;5277538;27;20576;-76
2024/04/12 07:25:39;;;;;;;21.40;17.10;;;;;;;15.91;78.38;102501.84;5277274;27;20549;-76
2024/04/12 07:28:06;;;;;;;23.60;17.50;;;;;;;16.42;77.09;102497.31;5277222;27;21505;-76
2024/04/12 07:30:32;;;;;;;20.37;16.83;;;;;;;15.99;77.79;102497.56;5278088;27;20415;-75
2024/04/12 07:32:58;;;;;;;21.47;17.40;;;;;;;15.72;78.27;102504.16;5277179;27;20458;-75
2024/04/12 07:35:26;;;;;;;24.70;17.30;;;;;;;16.10;78.78;102508.25;5277095;27;20511;-75
2024/04/12 07:37:54;;;;;;;20.40;17.20;;;;;;;15.88;78.87;102504.44;5276678;27;20380;-75
2024/04/12 07:40:24;;;;;;;20.00;17.47;;;;;;;16.29;78.66;102499.78;5277363;27;20495;-75
2024/04/12 07:42:50;;;;;;;22.30;16.73;;;;;;;15.83;77.89;102501.75;5248731;27;21028;-75
2024/04/12 07:45:17;;;;;;;19.90;17.70;;;;;;;16.41;77.07;102499.09;5243406;27;20559;-75
2024/04/12 07:47:55;;;;;;;20.47;16.13;;;;;;;16.51;76.16;102481.66;5243005;27;20439;-75
2024/04/12 07:50:29;;;;;;;19.93;16.40;;;;;;;16.28;75.91;102473.47;5242983;27;20628;-75
2024/04/12 07:53:21;;;;;;;18.20;16.30;;;;;;;16.41;75.74;102470.13;5246124;27;20817;-75
2024/04/12 07:55:55;;;;;;;18.27;15.60;;;;;;;16.34;75.89;102465.63;5271382;27;20470;-76
2024/04/12 07:58:34;;;;;;;18.10;15.30;;;;;;;16.94;74.43;102458.50;5278275;27;20991;-76
2024/04/12 08:01:09;;;;;;;18.30;16.27;;;;;;;15.83;77.13;102473.69;5250062;27;20588;-75
2024/04/12 08:03:42;;;;;;;17.23;15.37;;;;;;;16.03;77.05;102480.09;5279783;27;20449;-75
2024/04/12 08:06:19;;;;;;;17.70;15.77;;;;;;;16.13;77.30;102477.63;5280090;27;20457;-76
2024/04/12 08:08:45;;;;;;;17.97;16.10;;;;;;;16.52;76.56;102467.63;5280283;27;20442;-77
2024/04/12 08:11:35;;;;;;;17.73;15.00;;;;;;;16.37;75.62;102465.66;5250073;27;20541;-77
2024/04/12 08:14:08;;;;;;;16.50;14.80;;;;;;;16.52;75.20;102461.47;5279508;27;20434;-76
2024/04/12 08:16:46;;;;;;;16.40;14.43;;;;;;;16.57;75.32;102459.78;5249487;27;20454;-76
2024/04/12 08:19:13;;;;;;;16.47;13.37;;;;;;;16.59;74.40;102451.03;5279142;27;20483;-75
2024/04/12 08:21:42;;;;;;;16.07;13.73;;;;;;;16.22;75.88;102445.28;5279447;27;20597;-76
2024/04/12 08:24:15;;;;;;;14.97;13.00;;;;;;;16.48;74.40;102452.63;5279516;27;20450;-76
2024/04/12 08:26:47;;;;;;;16.10;13.73;;;;;;;16.55;74.92;102449.25;5279653;27;20522;-76
2024/04/12 08:29:29;;;;;;;14.70;13.20;;;;;;;16.58;74.06;102449.25;5278908;27;20474;-76
2024/04/12 08:32:11;;;;;;;15.10;13.03;;;;;;;16.78;73.02;102438.97;5278967;27;20435;-75
2024/04/12 08:34:43;;;;;;;14.10;12.57;;;;;;;16.98;72.25;102443.59;5248968;27;20500;-75
2024/04/12 08:37:13;;;;;;;13.83;12.20;;;;;;;16.91;72.45;102441.75;5249199;27;20458;-76
2024/04/12 08:39:46;;;;;;;13.77;12.20;;;;;;;16.62;73.09;102437.03;5278372;27;20806;-75
2024/04/12 08:42:15;;;;;;;13.20;11.73;;;;;;;16.54;73.21;102447.47;5259247;27;20512;-75
2024/04/12 08:44:42;;;;;;;11.60;10.40;;;;;;;16.41;73.79;102446.44;5245358;27;20574;-76
2024/04/12 08:50:03;;;;;;;11.53;10.40;;;;;;;16.73;73.37;102431.88;5245232;27;20455;-76
2024/04/12 08:52:32;;;;;;;11.73;10.53;;;;;;;16.73;72.79;102439.78;5245319;27;21138;-75
2024/04/12 08:54:59;;;;;;;11.53;10.33;;;;;;;16.64;72.97;102443.19;5261710;27;20463;-75
2024/04/12 08:57:26;;;;;;;12.43;11.23;;;;;;;16.36;72.70;102434.06;5279250;27;20526;-75
2024/04/12 08:59:52;;;;;;;12.40;10.70;;;;;;;16.27;73.16;102437.47;5278437;27;20462;-75
2024/04/12 09:02:24;;;;;;;11.97;10.77;;;;;;;16.22;73.38;102424.22;5278295;27;20789;-76
2024/04/12 09:04:52;;;;;;;11.60;10.40;;;;;;;16.73;72.43;102416.97;5278034;27;20503;-75
2024/04/12 09:07:20;;;;;;;12.20;11.00;;;;;;;16.99;70.88;102412.00;5278345;27;20501;-76
2024/04/12 09:09:54;;;;;;;13.10;10.80;;;;;;;17.65;70.34;102426.59;5277281;27;20474;-76
2024/04/12 09:12:24;;;;;;;11.90;10.70;;;;;;;17.81;68.77;102432.88;5278407;27;20478;-75
2024/04/12 09:14:53;;;;;;;10.93;9.87;;;;;;;17.69;68.83;102438.94;5277921;27;20979;-75
2024/04/12 09:17:25;;;;;;;11.37;10.20;;;;;;;17.40;68.67;102434.34;5278278;27;20585;-75
2024/04/12 09:19:51;;;;;;;9.80;8.80;;;;;;;17.48;68.82;102437.91;5277878;27;20570;-75
2024/04/12 09:22:17;;;;;;;11.80;9.70;;;;;;;17.35;68.91;102433.41;5278167;27;20470;-75
2024/04/12 09:24:48;;;;;;;19.93;17.60;;;;;;;16.72;69.76;102449.41;5278076;27;20223;-76
2024/04/12 09:27:22;;;;;;;13.27;11.60;;;;;;;17.20;69.25;102438.53;5277902;27;20506;-75
2024/04/12 09:29:54;;;;;;;15.23;12.27;;;;;;;16.30;70.97;102445.41;5277827;27;20883;-75
2024/04/12 09:35:10;;;;;;;11.70;10.37;;;;;;;16.31;71.31;102434.88;5278116;27;20489;-75
2024/04/12 09:37:38;;;;;;;14.07;12.03;;;;;;;16.57;71.64;102431.69;5278363;27;20837;-76
2024/04/12 09:40:24;;;;;;;10.43;9.43;;;;;;;16.72;71.38;102430.13;5248091;27;20471;-76
2024/04/12 09:45:27;;;;;;;11.97;10.77;;;;;;;16.87;71.23;102434.66;5244448;27;20608;-76
2024/04/12 10:37:48;;;;;;;10.60;9.60;;;;;;;17.05;71.67;102399.72;5277818;27;20554;-75
2024/04/12 10:40:16;;;;;;;12.43;11.13;;;;;;;16.94;72.34;102400.53;5277556;27;20446;-75
2024/04/12 10:42:47;;;;;;;10.97;9.87;;;;;;;16.56;73.31;102410.63;5251403;27;20515;-75
2024/04/12 10:45:15;;;;;;;10.70;9.50;;;;;;;16.89;73.07;102414.50;5244037;27;20492;-75
2024/04/12 10:47:44;;;;;;;12.37;11.10;;;;;;;17.33;72.06;102406.13;5264063;22;20532;-78
2024/04/12 10:50:11;;;;;;;11.37;9.60;;;;;;;16.95;73.14;102407.56;5213049;27;20542;-76
2024/04/12 10:52:38;;;;;;;10.50;9.40;;;;;;;17.16;71.48;102409.50;5242884;27;20447;-77
2024/04/12 10:55:09;;;;;;;10.93;9.83;;;;;;;17.11;72.08;102407.72;5243086;27;20547;-77
2024/04/12 10:57:41;;;;;;;11.40;10.20;;;;;;;16.33;75.33;102406.84;5232246;27;20473;-77
2024/04/12 11:00:17;;;;;;;11.70;9.70;;;;;;;16.43;75.28;102407.84;5210160;27;20502;-77
2024/04/12 11:02:47;;;;;;;12.03;10.20;;;;;;;16.84;73.93;102398.63;5210172;27;20513;-77
2024/04/12 11:07:50;;;;;;;10.77;9.67;;;;;;;17.38;72.11;102393.00;5209857;27;20611;-76
2024/04/12 11:10:38;;;;;;;11.00;9.87;;;;;;;17.19;73.26;102405.16;5181208;27;20473;-75
2024/04/12 11:13:07;;;;;;;11.67;10.10;;;;;;;16.65;73.17;102410.72;5209261;27;21043;-76
2024/04/12 11:31:52;;;;;;;12.27;10.97;;;;;;;17.95;70.09;102374.94;5209853;27;20492;-78
2024/04/12 11:34:18;;;;;;;11.03;9.93;;;;;;;17.99;70.54;102363.53;5183584;27;20450;-76
2024/04/12 11:36:44;;;;;;;11.07;9.97;;;;;;;18.48;69.55;102357.53;5211935;27;20529;-77
2024/04/12 11:39:23;;;;;;;10.80;9.53;;;;;;;18.41;67.89;102367.19;5183206;27;20465;-78
2024/04/12 11:41:49;;;;;;;15.53;10.00;;;;;;;18.23;69.56;102368.03;5212233;27;20472;-78
2024/04/12 11:44:17;;;;;;;11.90;10.67;;;;;;;17.87;70.44;102369.56;5212285;27;21031;-77
2024/04/12 11:46:46;;;;;;;10.87;9.63;;;;;;;18.23;69.92;102367.16;5212334;27;20272;-78
2024/04/12 11:49:26;;;;;;;12.40;11.10;;;;;;;17.74;71.51;102375.66;5212891;27;20891;-78
2024/04/12 11:52:01;;;;;;;13.83;12.43;;;;;;;18.01;70.91;102367.94;5213088;27;20505;-77
2024/04/12 11:54:29;;;;;;;14.03;12.63;;;;;;;17.39;72.92;102356.09;5182757;27;21061;-77
2024/04/12 11:57:01;;;;;;;12.43;10.77;;;;;;;16.84;73.19;102348.59;5211839;27;20446;-77
2024/04/12 11:59:29;;;;;;;11.87;10.77;;;;;;;18.09;71.14;102338.94;5182608;27;20512;-77
2024/04/12 12:01:59;;;;;;;12.00;10.80;;;;;;;18.17;69.79;102338.97;5212451;27;20450;-77
2024/04/12 12:04:28;;;;;;;12.03;10.07;;;;;;;18.92;67.69;102332.13;5211817;27;20807;-77
2024/04/12 12:06:55;;;;;;;13.90;11.60;;;;;;;18.79;67.67;102337.34;5212155;27;20457;-77
2024/04/12 12:09:20;;;;;;;11.23;10.10;;;;;;;18.65;67.36;102336.47;5182332;27;20472;-77
2024/04/12 12:11:49;;;;;;;14.27;11.07;;;;;;;18.91;67.38;102346.19;5211741;27;20560;-77
2024/04/12 12:14:15;;;;;;;12.40;11.17;;;;;;;18.76;67.13;102344.41;5211943;27;20319;-77
2024/04/12 12:16:40;;;;;;;14.77;10.43;;;;;;;19.52;65.57;102329.41;5182618;27;20598;-77
2024/04/12 12:19:06;;;;;;;14.10;9.70;;;;;;;19.13;65.66;102341.78;5212617;27;21046;-78
2024/04/12 12:21:33;;;;;;;10.23;9.23;;;;;;;19.37;65.29;102342.66;5214250;27;20332;-77
2024/04/12 12:23:59;;;;;;;10.40;9.17;;;;;;;19.11;65.11;102328.56;5212748;27;20507;-77
2024/04/12 12:26:24;;;;;;;10.10;9.10;;;;;;;19.25;64.77;102335.63;5212045;27;20460;-77
2024/04/12 12:28:50;;;;;;;9.70;8.70;;;;;;;19.60;63.17;102324.09;5211009;27;20585;-76
2024/04/12 12:31:18;;;;;;;10.07;9.10;;;;;;;19.26;63.29;102334.75;5211942;27;20336;-76
2024/04/12 12:33:47;;;;;;;11.30;10.10;;;;;;;20.06;62.70;102326.59;5211881;27;20225;-77
2024/04/12 12:36:13;;;;;;;9.27;8.37;;;;;;;19.16;62.80;102326.81;5182488;27;20469;-75
2024/04/12 12:38:41;;;;;;;9.87;8.97;;;;;;;19.09;63.84;102327.72;5211075;27;20465;-78
2024/04/12 12:41:07;;;;;;;9.50;8.60;;;;;;;19.44;62.89;102331.19;5210836;27;20641;-78
2024/04/12 12:43:32;;;;;;;9.40;8.50;;;;;;;19.34;62.53;102320.63;5210609;27;20505;-77